createdAt,value
2023-01-18T00:01:37.821Z,35.40
2023-01-18T00:06:41.280Z,35.60
2023-01-18T00:11:44.829Z,36.80
2023-01-18T00:16:47.991Z,39.40
2023-01-18T00:21:54.221Z,40.20
2023-01-18T00:26:56.404Z,34.30
2023-01-18T00:31:58.568Z,35.70
2023-01-18T00:37:01.307Z,32.20
2023-01-18T00:42:22.861Z,36.60
2023-01-18T00:47:26.408Z,40.00
2023-01-18T00:52:30.344Z,41.30
2023-01-18T00:57:33.269Z,39.30
2023-01-18T01:02:42.653Z,33.70
2023-01-18T01:07:49.235Z,32.40
2023-01-18T01:13:11.601Z,31.50
2023-01-18T01:18:33.993Z,34.70
2023-01-18T01:23:56.249Z,34.10
2023-01-18T01:29:00.453Z,30.60
2023-01-18T01:34:02.711Z,29.20
2023-01-18T01:39:07.262Z,28.70
2023-01-18T01:44:25.427Z,32.40
2023-01-18T01:55:04.678Z,32.10
2023-01-18T02:00:12.262Z,28.20
2023-01-18T02:10:19.634Z,28.10
2023-01-18T02:15:26.441Z,20.00
2023-01-18T02:20:33.644Z,19.80
2023-01-18T02:26:13.547Z,17.90
2023-01-18T02:31:22.905Z,18.60
2023-01-18T02:36:49.395Z,16.30
2023-01-18T02:42:17.834Z,16.90
2023-01-18T02:47:23.586Z,15.20
2023-01-18T02:52:48.490Z,16.50
2023-01-18T02:57:56.845Z,15.10
2023-01-18T03:03:02.642Z,13.60
2023-01-18T03:08:16.277Z,14.70
2023-01-18T03:13:34.097Z,14.10
2023-01-18T03:19:27.467Z,15.90
2023-01-18T03:24:30.850Z,22.90
2023-01-18T03:29:51.348Z,16.90
2023-01-18T03:35:17.393Z,16.70
2023-01-18T03:40:27.565Z,16.80
2023-01-18T03:45:50.052Z,18.40
2023-01-18T03:51:00.667Z,15.50
2023-01-18T03:56:17.558Z,14.10
2023-01-18T04:01:20.281Z,15.30
2023-01-18T04:06:23.986Z,17.80
2023-01-18T04:11:27.056Z,16.20
2023-01-18T04:16:29.918Z,16.20
2023-01-18T04:21:34.122Z,20.30
2023-01-18T04:26:37.441Z,15.60
2023-01-18T04:31:39.576Z,16.50
2023-01-18T04:36:42.327Z,17.90
2023-01-18T04:41:44.998Z,18.10
2023-01-18T04:46:49.149Z,15.70
2023-01-18T04:51:52.982Z,18.60
2023-01-18T04:56:56.336Z,18.20
2023-01-18T05:01:59.146Z,20.50
2023-01-18T05:07:01.694Z,22.60
2023-01-18T05:12:04.605Z,21.10
2023-01-18T05:17:07.810Z,15.20
2023-01-18T05:22:11.547Z,17.00
2023-01-18T05:27:15.268Z,13.60
2023-01-18T05:32:18.486Z,14.90
2023-01-18T05:37:23.702Z,16.80
2023-01-18T05:42:26.756Z,16.30
2023-01-18T05:47:29.574Z,15.10
2023-01-18T05:52:34.682Z,15.60
2023-01-18T05:57:38.140Z,13.70
2023-01-18T06:02:40.744Z,14.60
2023-01-18T06:07:43.750Z,13.40
2023-01-18T06:12:47.343Z,16.90
2023-01-18T06:17:50.921Z,18.30
2023-01-18T06:22:54.876Z,16.80
2023-01-18T06:27:58.579Z,16.90
2023-01-18T06:33:06.934Z,17.90
2023-01-18T06:38:10.501Z,18.00
2023-01-18T06:43:14.573Z,16.00
2023-01-18T06:48:17.728Z,18.00
2023-01-18T06:53:21.392Z,19.30
2023-01-18T06:58:25.611Z,20.40
2023-01-18T07:03:29.640Z,16.30
2023-01-18T07:08:34.194Z,16.90
2023-01-18T07:13:43.889Z,19.00
2023-01-18T07:18:49.216Z,16.00
2023-01-18T07:23:53.544Z,17.10
2023-01-18T07:28:58.163Z,18.40
2023-01-18T07:34:00.620Z,17.40
2023-01-18T07:39:03.041Z,19.10
2023-01-18T07:44:05.935Z,16.90
2023-01-18T07:49:08.992Z,18.10
2023-01-18T07:54:11.729Z,16.60
2023-01-18T07:59:14.906Z,21.10
2023-01-18T08:04:18.605Z,17.20
2023-01-18T08:09:21.346Z,17.80
2023-01-18T08:14:23.560Z,18.20
2023-01-18T08:19:26.343Z,16.10
2023-01-18T08:24:28.963Z,19.00
2023-01-18T08:29:31.686Z,16.50
2023-01-18T08:34:33.755Z,15.40
2023-01-18T08:39:38.263Z,14.40
2023-01-18T08:44:41.150Z,16.60
2023-01-18T08:49:44.223Z,15.10
2023-01-18T08:54:47.270Z,16.80
2023-01-18T08:59:52.858Z,16.00
2023-01-18T09:04:55.108Z,15.00
2023-01-18T09:09:58.415Z,13.70
2023-01-18T09:15:01.632Z,13.70
2023-01-18T09:20:09.816Z,13.40
2023-01-18T09:25:13.878Z,12.10
2023-01-18T09:30:17.500Z,13.70
2023-01-18T09:35:20.429Z,12.30
2023-01-18T09:40:27.609Z,13.90
2023-01-18T09:45:34.957Z,10.00
2023-01-18T09:50:45.255Z,11.70
2023-01-18T09:55:57.113Z,10.00
2023-01-18T10:01:05.794Z,11.60
2023-01-18T10:06:16.019Z,16.90
2023-01-18T10:11:22.698Z,14.80
2023-01-18T10:16:25.321Z,15.90
2023-01-18T10:21:41.746Z,15.40
2023-01-18T10:26:48.042Z,14.00
2023-01-18T10:31:59.238Z,17.40
2023-01-18T10:37:14.758Z,14.70
2023-01-18T10:42:45.121Z,17.90
2023-01-18T10:47:48.668Z,18.10
2023-01-18T10:52:51.122Z,19.40
2023-01-18T10:57:54.705Z,18.30
2023-01-18T11:02:59.583Z,16.70
2023-01-18T11:08:22.690Z,17.10
2023-01-18T11:13:27.451Z,15.40
2023-01-18T11:18:29.977Z,13.30
2023-01-18T11:23:37.265Z,11.20
2023-01-18T11:28:45.819Z,13.80
2023-01-18T11:34:08.491Z,11.50
2023-01-18T11:39:18.147Z,11.20
2023-01-18T11:44:30.976Z,13.80
2023-01-18T11:49:44.953Z,12.20
2023-01-18T11:54:56.094Z,12.00
2023-01-18T11:59:58.874Z,9.80
2023-01-18T12:05:22.642Z,8.50
2023-01-18T12:10:32.250Z,11.00
2023-01-18T12:15:42.786Z,9.60
2023-01-18T12:21:03.510Z,9.30
2023-01-18T12:26:48.661Z,9.80
2023-01-18T12:32:13.269Z,10.70
2023-01-18T12:37:43.183Z,9.60
2023-01-18T12:42:51.697Z,9.80
2023-01-18T12:48:05.727Z,11.70
2023-01-18T12:53:50.236Z,13.20
2023-01-18T12:59:01.270Z,21.30
2023-01-18T13:04:18.429Z,18.80
2023-01-18T13:09:28.610Z,19.30
2023-01-18T13:15:05.523Z,21.70
2023-01-18T13:20:11.722Z,15.00
2023-01-18T13:25:38.576Z,14.40
2023-01-18T13:31:02.325Z,12.60
2023-01-18T13:36:11.867Z,14.30
2023-01-18T13:41:17.294Z,12.40
2023-01-18T13:46:25.098Z,14.60
2023-01-18T13:51:40.340Z,14.70
2023-01-18T13:57:06.216Z,14.20
2023-01-18T14:02:34.968Z,13.70
2023-01-18T14:07:44.308Z,17.60
2023-01-18T14:12:54.279Z,12.80
2023-01-18T14:17:59.373Z,14.20
2023-01-18T14:23:28.938Z,15.60
2023-01-18T14:28:56.145Z,14.40
2023-01-18T14:34:19.194Z,25.30
2023-01-18T14:39:23.211Z,27.30
2023-01-18T14:44:57.277Z,24.40
2023-01-18T14:50:04.891Z,19.30
2023-01-18T14:55:24.292Z,23.20
2023-01-18T15:00:27.917Z,22.10
2023-01-18T15:05:31.229Z,20.40
2023-01-18T15:10:36.046Z,16.60
2023-01-18T15:15:42.255Z,17.70
2023-01-18T15:20:56.919Z,19.70
2023-01-18T15:25:59.831Z,18.60
2023-01-18T15:31:16.507Z,20.70
2023-01-18T15:36:20.055Z,18.40
2023-01-18T15:41:23.453Z,20.30
2023-01-18T15:46:29.071Z,20.90
2023-01-18T15:51:58.587Z,20.50
2023-01-18T15:57:19.333Z,23.00
2023-01-18T16:02:23.802Z,21.80
2023-01-18T16:07:41.910Z,22.50
2023-01-18T16:12:48.258Z,21.70
2023-01-18T16:17:57.016Z,24.00
2023-01-18T16:23:09.249Z,23.50
2023-01-18T16:28:13.053Z,18.80
2023-01-18T16:33:20.122Z,21.50
2023-01-18T16:38:24.788Z,21.40
2023-01-18T16:43:32.600Z,21.10
2023-01-18T16:48:40.189Z,18.10
2023-01-18T16:53:44.789Z,18.40
2023-01-18T16:58:49.813Z,17.20
2023-01-18T17:03:54.584Z,16.60
2023-01-18T17:09:06.472Z,15.60
2023-01-18T17:14:11.834Z,16.10
2023-01-18T17:19:24.388Z,16.70
2023-01-18T17:24:28.861Z,17.80
2023-01-18T17:29:34.879Z,17.70
2023-01-18T17:34:39.789Z,17.40
2023-01-18T17:39:44.287Z,17.90
2023-01-18T17:45:04.209Z,22.00
2023-01-18T17:50:13.955Z,18.70
2023-01-18T17:55:19.637Z,18.10
2023-01-18T18:00:27.577Z,19.60
2023-01-18T18:05:30.407Z,21.20
2023-01-18T18:10:33.356Z,20.50
2023-01-18T18:15:35.290Z,21.50
2023-01-18T18:20:41.388Z,22.60
2023-01-18T18:25:45.728Z,22.00
2023-01-18T18:30:48.486Z,22.20
2023-01-18T18:35:51.699Z,23.20
2023-01-18T18:40:54.843Z,25.00
2023-01-18T18:45:57.313Z,23.80
2023-01-18T18:51:04.134Z,26.90
2023-01-18T18:56:10.574Z,28.70
2023-01-18T19:01:24.702Z,31.20
2023-01-18T19:06:30.526Z,30.80
2023-01-18T19:11:39.488Z,29.30
2023-01-18T19:16:45.864Z,25.50
2023-01-18T19:21:51.016Z,30.10
2023-01-18T19:26:56.158Z,33.10
2023-01-18T19:32:01.581Z,35.20
2023-01-18T19:37:08.805Z,33.20
2023-01-18T19:42:19.307Z,34.60
2023-01-18T19:47:44.076Z,36.20
2023-01-18T19:53:02.325Z,32.90
2023-01-18T19:58:35.425Z,36.50
2023-01-18T20:09:20.305Z,32.70
2023-01-18T20:14:40.434Z,34.90
2023-01-18T20:19:45.196Z,34.90
2023-01-18T20:24:49.161Z,35.40
2023-01-18T20:29:52.440Z,38.40
2023-01-18T20:34:57.500Z,35.60
2023-01-18T20:40:00.201Z,34.80
2023-01-18T20:45:04.561Z,36.00
2023-01-18T20:50:07.291Z,34.50
2023-01-18T20:55:16.032Z,32.90
2023-01-18T21:00:35.909Z,33.40
2023-01-18T21:05:45.762Z,30.50
2023-01-18T21:10:48.346Z,36.10
2023-01-18T21:15:57.935Z,33.30
2023-01-18T21:21:00.798Z,34.10
2023-01-18T21:26:04.523Z,31.10
2023-01-18T21:31:10.408Z,31.40
2023-01-18T21:36:20.355Z,33.60
2023-01-18T21:41:42.514Z,34.60
2023-01-18T21:46:50.749Z,34.00
2023-01-18T21:52:12.199Z,30.00
2023-01-18T21:57:14.783Z,34.40
2023-01-18T22:02:17.749Z,25.70
2023-01-18T22:07:20.834Z,32.20
2023-01-18T22:12:23.785Z,33.90
2023-01-18T22:17:25.923Z,34.60
2023-01-18T22:22:28.306Z,36.90
2023-01-18T22:27:31.057Z,29.20
2023-01-18T22:32:35.102Z,32.80
2023-01-18T22:37:39.325Z,30.60
2023-01-18T22:42:44.517Z,35.90
2023-01-18T22:47:49.564Z,38.30
2023-01-18T22:52:55.928Z,33.40
2023-01-18T22:58:01.859Z,33.50
2023-01-18T23:03:08.173Z,33.70
2023-01-18T23:08:12.845Z,32.80
2023-01-18T23:13:15.331Z,34.70
2023-01-18T23:18:18.744Z,31.60
2023-01-18T23:23:22.639Z,30.80
2023-01-18T23:28:43.545Z,37.20
2023-01-18T23:39:09.270Z,34.00
2023-01-18T23:44:30.954Z,31.90
2023-01-18T23:49:53.292Z,25.70
2023-01-18T23:54:57.381Z,40.70
